Flugplatz Bad Wildungen (UL)

Hier findest Du alle Informationen zum Flugplatz Bad Wildungen (UL).

Informationen für Piloten zum Flugplatz Bad Wildungen

Hier findest Du alle relevanten Informationen, die Du als Pilot benötigst, um Bad Wildungen anzufliegen.

Flugplatz: Bad Wildungen ICAO-Code: UL Flugplatz
Frequenz Turm: 128,840 Mhz GAFOR Gebiet: 43
Frequenz Ground: 128,840 Mhz Mogas: nein
Platzrunde: O 0 ft Landegebühr: 10,00 €
Platzhöhe: - Sunrise: 06:53 Uhr UTC
Pisten: 01/19 - 1000 m x 50 m, GRAS Sunset: 16:20 Uhr UTC

Mitglieder, die in Bad Wildungen fliegen

Flugwetter am Flugplatz Bad Wildungen

Die METAR Information stammen aus EDVK (38.16 km entfernt).

METAR Code:
2023/01/30 16:50
EDVK 301650Z 28014KT 9999 FEW029 BKN038 BKN046 04/01 Q1016

Flugschulen am Flugplatz Bad Wildungen

Am Flugplatz Bad Wildungen gibt es leider keine Flugschule.

Benachbarte Flugplätze und Flugschulen

Es gibt 16 weitere Flugplätze in einem Umkreis von 50 km um den Flugplatz Bad Wildungen.

Jetzt anmelden

Passwort vergessen

Umfrage Archiv

Sendet Ihr ADS-B und/oder FLARM?

Ja
84.5 %
Nein
15.5 %
Stimmen: 277 | Diskussion
Anzeige: Roland Aircraft
Statistik Alle Mitglieder

Aktuell sind 66 Besucher online, davon 2 Mitglieder und 64 Gäste.


Mitglieder online:
Karst  Bananenbieger 

Anzeige: EasyVFR